sensor_id;sensor_type;location;lat;lon;timestamp;temperature;humidity
10276;DHT22;5183;51.190;6.820;2022-12-10T00:01:39;-0.90;99.90
10276;DHT22;5183;51.190;6.820;2022-12-10T00:04:06;-0.80;99.90
10276;DHT22;5183;51.190;6.820;2022-12-10T00:06:35;-0.90;99.90
10276;DHT22;5183;51.190;6.820;2022-12-10T00:09:04;-0.90;99.90
10276;DHT22;5183;51.190;6.820;2022-12-10T00:11:31;-1.00;99.90
10276;DHT22;5183;51.190;6.820;2022-12-10T00:13:59;-1.10;99.90
10276;DHT22;5183;51.190;6.820;2022-12-10T00:16:28;-1.20;99.90
10276;DHT22;5183;51.190;6.820;2022-12-10T00:18:56;-1.20;99.90
10276;DHT22;5183;51.190;6.820;2022-12-10T00:21:25;-1.30;99.90
10276;DHT22;5183;51.190;6.820;2022-12-10T00:23:52;-1.30;99.90
10276;DHT22;5183;51.190;6.820;2022-12-10T00:26:20;-1.30;99.90
10276;DHT22;5183;51.190;6.820;2022-12-10T00:28:47;-1.40;99.90
10276;DHT22;5183;51.190;6.820;2022-12-10T00:31:16;-1.40;99.90
10276;DHT22;5183;51.190;6.820;2022-12-10T00:33:45;-1.50;99.90
10276;DHT22;5183;51.190;6.820;2022-12-10T00:36:14;-1.50;99.90
10276;DHT22;5183;51.190;6.820;2022-12-10T00:38:42;-1.50;99.90
10276;DHT22;5183;51.190;6.820;2022-12-10T00:41:09;-1.50;99.90
10276;DHT22;5183;51.190;6.820;2022-12-10T00:43:36;-1.50;99.90
10276;DHT22;5183;51.190;6.820;2022-12-10T00:46:04;-1.60;99.90
10276;DHT22;5183;51.190;6.820;2022-12-10T00:48:30;-1.60;99.90
10276;DHT22;5183;51.190;6.820;2022-12-10T00:51:01;-1.60;99.90
10276;DHT22;5183;51.190;6.820;2022-12-10T00:53:29;-1.50;99.90
10276;DHT22;5183;51.190;6.820;2022-12-10T00:55:56;-1.50;99.90
10276;DHT22;5183;51.190;6.820;2022-12-10T00:58:26;-1.50;99.90
10276;DHT22;5183;51.190;6.820;2022-12-10T01:00:53;-1.60;99.90
10276;DHT22;5183;51.190;6.820;2022-12-10T01:03:20;-1.70;99.90
10276;DHT22;5183;51.190;6.820;2022-12-10T01:05:50;-1.70;99.90
10276;DHT22;5183;51.190;6.820;2022-12-10T01:08:21;-1.80;99.90
10276;DHT22;5183;51.190;6.820;2022-12-10T01:10:52;-1.80;99.90
10276;DHT22;5183;51.190;6.820;2022-12-10T01:13:19;-1.80;99.90
10276;DHT22;5183;51.190;6.820;2022-12-10T01:15:46;-1.80;99.90
10276;DHT22;5183;51.190;6.820;2022-12-10T01:18:13;-1.80;99.90
10276;DHT22;5183;51.190;6.820;2022-12-10T01:20:39;-1.90;99.90
10276;DHT22;5183;51.190;6.820;2022-12-10T01:23:06;-1.90;99.90
10276;DHT22;5183;51.190;6.820;2022-12-10T01:25:34;-1.90;99.90
10276;DHT22;5183;51.190;6.820;2022-12-10T01:28:01;-1.90;99.90
10276;DHT22;5183;51.190;6.820;2022-12-10T01:30:28;-1.90;99.90
10276;DHT22;5183;51.190;6.820;2022-12-10T01:32:55;-1.90;99.90
10276;DHT22;5183;51.190;6.820;2022-12-10T01:35:22;-1.90;99.90
10276;DHT22;5183;51.190;6.820;2022-12-10T01:37:49;-2.00;99.90
10276;DHT22;5183;51.190;6.820;2022-12-10T01:40:16;-2.00;99.90
10276;DHT22;5183;51.190;6.820;2022-12-10T01:42:44;-2.00;99.90
10276;DHT22;5183;51.190;6.820;2022-12-10T01:45:12;-2.00;99.90
10276;DHT22;5183;51.190;6.820;2022-12-10T01:47:39;-2.00;99.90
10276;DHT22;5183;51.190;6.820;2022-12-10T01:50:07;-2.00;99.90
10276;DHT22;5183;51.190;6.820;2022-12-10T01:52:35;-2.00;99.90
10276;DHT22;5183;51.190;6.820;2022-12-10T01:55:08;-2.00;99.90
10276;DHT22;5183;51.190;6.820;2022-12-10T01:57:35;-2.10;99.90
10276;DHT22;5183;51.190;6.820;2022-12-10T02:00:05;-2.10;99.90
10276;DHT22;5183;51.190;6.820;2022-12-10T02:02:42;-2.10;99.90
10276;DHT22;5183;51.190;6.820;2022-12-10T02:05:18;-2.20;99.90
10276;DHT22;5183;51.190;6.820;2022-12-10T02:07:55;-2.10;99.90
10276;DHT22;5183;51.190;6.820;2022-12-10T02:10:32;-2.10;99.90
10276;DHT22;5183;51.190;6.820;2022-12-10T02:13:06;-2.10;99.90
10276;DHT22;5183;51.190;6.820;2022-12-10T02:15:39;-2.10;99.90
10276;DHT22;5183;51.190;6.820;2022-12-10T02:18:11;-2.10;99.90
10276;DHT22;5183;51.190;6.820;2022-12-10T02:20:41;-2.00;99.90
10276;DHT22;5183;51.190;6.820;2022-12-10T02:23:12;-1.90;99.90
10276;DHT22;5183;51.190;6.820;2022-12-10T02:25:43;-1.80;99.90
10276;DHT22;5183;51.190;6.820;2022-12-10T02:28:16;-1.80;99.90
10276;DHT22;5183;51.190;6.820;2022-12-10T02:30:48;-1.80;99.90
10276;DHT22;5183;51.190;6.820;2022-12-10T02:33:17;-1.70;99.90
10276;DHT22;5183;51.190;6.820;2022-12-10T02:35:48;-1.70;99.90
10276;DHT22;5183;51.190;6.820;2022-12-10T02:38:20;-1.60;99.90
10276;DHT22;5183;51.190;6.820;2022-12-10T02:40:53;-1.70;99.90
10276;DHT22;5183;51.190;6.820;2022-12-10T02:43:21;-1.60;99.90
10276;DHT22;5183;51.190;6.820;2022-12-10T02:45:51;-1.60;99.90
10276;DHT22;5183;51.190;6.820;2022-12-10T02:48:18;-1.60;99.90
10276;DHT22;5183;51.190;6.820;2022-12-10T02:50:46;-1.60;99.90
10276;DHT22;5183;51.190;6.820;2022-12-10T02:53:12;-1.60;99.90
10276;DHT22;5183;51.190;6.820;2022-12-10T02:55:52;-1.50;99.90
10276;DHT22;5183;51.190;6.820;2022-12-10T02:58:27;-1.50;99.90
10276;DHT22;5183;51.190;6.820;2022-12-10T03:01:01;-1.40;99.90
10276;DHT22;5183;51.190;6.820;2022-12-10T03:03:37;-1.30;99.90
10276;DHT22;5183;51.190;6.820;2022-12-10T03:06:11;-1.20;99.90
10276;DHT22;5183;51.190;6.820;2022-12-10T03:08:43;-1.10;99.90
10276;DHT22;5183;51.190;6.820;2022-12-10T03:11:14;-1.10;99.90
10276;DHT22;5183;51.190;6.820;2022-12-10T03:13:47;-1.00;99.90
10276;DHT22;5183;51.190;6.820;2022-12-10T03:16:19;-1.00;99.90
10276;DHT22;5183;51.190;6.820;2022-12-10T03:18:51;-0.90;99.90
10276;DHT22;5183;51.190;6.820;2022-12-10T03:21:20;-0.90;99.90
10276;DHT22;5183;51.190;6.820;2022-12-10T03:23:48;-0.80;99.90
10276;DHT22;5183;51.190;6.820;2022-12-10T03:26:16;-0.80;99.90
10276;DHT22;5183;51.190;6.820;2022-12-10T03:28:46;-0.80;99.90
10276;DHT22;5183;51.190;6.820;2022-12-10T03:31:16;-0.80;99.90
10276;DHT22;5183;51.190;6.820;2022-12-10T03:33:46;-0.80;99.90
10276;DHT22;5183;51.190;6.820;2022-12-10T03:36:14;-0.70;99.90
10276;DHT22;5183;51.190;6.820;2022-12-10T03:38:43;-0.70;99.90
10276;DHT22;5183;51.190;6.820;2022-12-10T03:41:10;-0.70;99.90
10276;DHT22;5183;51.190;6.820;2022-12-10T03:43:49;-0.70;99.90
10276;DHT22;5183;51.190;6.820;2022-12-10T03:46:16;-0.60;99.90
10276;DHT22;5183;51.190;6.820;2022-12-10T03:48:44;-0.60;99.90
10276;DHT22;5183;51.190;6.820;2022-12-10T03:51:11;-0.50;99.90
10276;DHT22;5183;51.190;6.820;2022-12-10T03:53:38;-0.50;99.90
10276;DHT22;5183;51.190;6.820;2022-12-10T03:56:05;-0.50;99.90
10276;DHT22;5183;51.190;6.820;2022-12-10T03:58:32;-0.50;99.90
10276;DHT22;5183;51.190;6.820;2022-12-10T04:00:59;-0.50;99.90
10276;DHT22;5183;51.190;6.820;2022-12-10T04:03:26;-0.40;99.90
10276;DHT22;5183;51.190;6.820;2022-12-10T04:05:54;-0.40;99.90
10276;DHT22;5183;51.190;6.820;2022-12-10T04:08:26;-0.40;99.90
10276;DHT22;5183;51.190;6.820;2022-12-10T04:10:53;-0.40;99.90
10276;DHT22;5183;51.190;6.820;2022-12-10T04:13:20;-0.40;99.90
10276;DHT22;5183;51.190;6.820;2022-12-10T04:16:04;-0.40;99.90
10276;DHT22;5183;51.190;6.820;2022-12-10T04:18:48;-0.30;99.90
10276;DHT22;5183;51.190;6.820;2022-12-10T04:21:16;-0.30;99.90
10276;DHT22;5183;51.190;6.820;2022-12-10T04:24:00;-0.30;99.90
10276;DHT22;5183;51.190;6.820;2022-12-10T04:26:45;-0.30;99.90
10276;DHT22;5183;51.190;6.820;2022-12-10T04:29:21;-0.30;99.90
10276;DHT22;5183;51.190;6.820;2022-12-10T04:31:48;-0.30;99.90
10276;DHT22;5183;51.190;6.820;2022-12-10T04:34:15;-0.30;99.90
10276;DHT22;5183;51.190;6.820;2022-12-10T04:36:43;-0.30;99.90
10276;DHT22;5183;51.190;6.820;2022-12-10T04:39:11;-0.30;99.90
10276;DHT22;5183;51.190;6.820;2022-12-10T04:41:39;-0.30;99.90
10276;DHT22;5183;51.190;6.820;2022-12-10T04:44:06;-0.30;99.90
10276;DHT22;5183;51.190;6.820;2022-12-10T04:46:33;-0.30;99.90
10276;DHT22;5183;51.190;6.820;2022-12-10T04:49:00;-0.30;99.90
10276;DHT22;5183;51.190;6.820;2022-12-10T04:51:27;-0.30;99.90
10276;DHT22;5183;51.190;6.820;2022-12-10T04:53:55;-0.30;99.90
10276;DHT22;5183;51.190;6.820;2022-12-10T04:56:22;-0.30;99.90
10276;DHT22;5183;51.190;6.820;2022-12-10T04:58:49;-0.30;99.90
10276;DHT22;5183;51.190;6.820;2022-12-10T05:01:17;-0.20;99.90
10276;DHT22;5183;51.190;6.820;2022-12-10T05:03:45;-0.30;99.90
10276;DHT22;5183;51.190;6.820;2022-12-10T05:06:13;-0.20;99.90
10276;DHT22;5183;51.190;6.820;2022-12-10T05:08:41;-0.30;99.90
10276;DHT22;5183;51.190;6.820;2022-12-10T05:11:11;-0.30;99.90
10276;DHT22;5183;51.190;6.820;2022-12-10T05:13:39;-0.30;99.90
10276;DHT22;5183;51.190;6.820;2022-12-10T05:16:08;-0.30;99.90
10276;DHT22;5183;51.190;6.820;2022-12-10T05:18:36;-0.30;99.90
10276;DHT22;5183;51.190;6.820;2022-12-10T05:21:06;-0.20;99.90
10276;DHT22;5183;51.190;6.820;2022-12-10T05:23:36;-0.20;99.90
10276;DHT22;5183;51.190;6.820;2022-12-10T05:26:04;-0.30;99.90
10276;DHT22;5183;51.190;6.820;2022-12-10T05:28:35;-0.20;99.90
10276;DHT22;5183;51.190;6.820;2022-12-10T05:31:03;-0.20;99.90
10276;DHT22;5183;51.190;6.820;2022-12-10T05:33:30;-0.20;99.90
10276;DHT22;5183;51.190;6.820;2022-12-10T05:35:59;-0.30;99.90
10276;DHT22;5183;51.190;6.820;2022-12-10T05:38:28;-0.20;99.90
10276;DHT22;5183;51.190;6.820;2022-12-10T05:40:55;-0.30;99.90
10276;DHT22;5183;51.190;6.820;2022-12-10T05:43:22;-0.30;99.90
10276;DHT22;5183;51.190;6.820;2022-12-10T05:45:50;-0.30;99.90
10276;DHT22;5183;51.190;6.820;2022-12-10T05:48:17;-0.30;99.90
10276;DHT22;5183;51.190;6.820;2022-12-10T05:50:44;-0.30;99.90
10276;DHT22;5183;51.190;6.820;2022-12-10T05:53:11;-0.30;99.90
10276;DHT22;5183;51.190;6.820;2022-12-10T05:55:39;-0.30;99.90
10276;DHT22;5183;51.190;6.820;2022-12-10T05:58:06;-0.40;99.90
10276;DHT22;5183;51.190;6.820;2022-12-10T06:00:33;-0.40;99.90
10276;DHT22;5183;51.190;6.820;2022-12-10T06:03:01;-0.40;99.90
10276;DHT22;5183;51.190;6.820;2022-12-10T06:05:28;-0.40;99.90
10276;DHT22;5183;51.190;6.820;2022-12-10T06:07:55;-0.40;99.90
10276;DHT22;5183;51.190;6.820;2022-12-10T06:10:22;-0.40;99.90
10276;DHT22;5183;51.190;6.820;2022-12-10T06:12:49;-0.40;99.90
10276;DHT22;5183;51.190;6.820;2022-12-10T06:15:15;-0.40;99.90
10276;DHT22;5183;51.190;6.820;2022-12-10T06:17:42;-0.40;99.90
10276;DHT22;5183;51.190;6.820;2022-12-10T06:20:11;-0.40;99.90
10276;DHT22;5183;51.190;6.820;2022-12-10T06:22:38;-0.40;99.90
10276;DHT22;5183;51.190;6.820;2022-12-10T06:25:05;-0.40;99.90
10276;DHT22;5183;51.190;6.820;2022-12-10T06:27:32;-0.40;99.90
10276;DHT22;5183;51.190;6.820;2022-12-10T06:29:59;-0.40;99.90
10276;DHT22;5183;51.190;6.820;2022-12-10T06:32:26;-0.30;99.90
10276;DHT22;5183;51.190;6.820;2022-12-10T06:34:53;-0.30;99.90
10276;DHT22;5183;51.190;6.820;2022-12-10T06:37:21;-0.30;99.90
10276;DHT22;5183;51.190;6.820;2022-12-10T06:39:50;-0.40;99.90
10276;DHT22;5183;51.190;6.820;2022-12-10T06:42:18;-0.40;99.90
10276;DHT22;5183;51.190;6.820;2022-12-10T06:44:45;-0.40;99.90
10276;DHT22;5183;51.190;6.820;2022-12-10T06:47:12;-0.40;99.90
10276;DHT22;5183;51.190;6.820;2022-12-10T06:49:39;-0.40;99.90
10276;DHT22;5183;51.190;6.820;2022-12-10T06:52:06;-0.50;99.90
10276;DHT22;5183;51.190;6.820;2022-12-10T06:54:34;-0.50;99.90
10276;DHT22;5183;51.190;6.820;2022-12-10T06:57:01;-0.50;99.90
10276;DHT22;5183;51.190;6.820;2022-12-10T06:59:28;-0.50;99.90
10276;DHT22;5183;51.190;6.820;2022-12-10T07:01:55;-0.60;99.90
10276;DHT22;5183;51.190;6.820;2022-12-10T07:04:21;-0.60;99.90
10276;DHT22;5183;51.190;6.820;2022-12-10T07:06:48;-0.50;99.90
10276;DHT22;5183;51.190;6.820;2022-12-10T07:09:15;-0.50;99.90
10276;DHT22;5183;51.190;6.820;2022-12-10T07:11:43;-0.50;99.90
10276;DHT22;5183;51.190;6.820;2022-12-10T07:14:14;-0.50;99.90
10276;DHT22;5183;51.190;6.820;2022-12-10T07:16:41;-0.50;99.90
10276;DHT22;5183;51.190;6.820;2022-12-10T07:19:09;-0.50;99.90
10276;DHT22;5183;51.190;6.820;2022-12-10T07:21:39;-0.40;99.90
10276;DHT22;5183;51.190;6.820;2022-12-10T07:24:07;-0.50;99.90
10276;DHT22;5183;51.190;6.820;2022-12-10T07:26:36;-0.40;99.90
10276;DHT22;5183;51.190;6.820;2022-12-10T07:29:05;-0.50;99.90
10276;DHT22;5183;51.190;6.820;2022-12-10T07:31:33;-0.50;99.90
10276;DHT22;5183;51.190;6.820;2022-12-10T07:34:00;-0.60;99.90
10276;DHT22;5183;51.190;6.820;2022-12-10T07:36:28;-0.60;99.90
10276;DHT22;5183;51.190;6.820;2022-12-10T07:38:55;-0.60;99.90
10276;DHT22;5183;51.190;6.820;2022-12-10T07:41:23;-0.60;99.90
10276;DHT22;5183;51.190;6.820;2022-12-10T07:43:50;-0.60;99.90
10276;DHT22;5183;51.190;6.820;2022-12-10T07:46:21;-0.60;99.90
10276;DHT22;5183;51.190;6.820;2022-12-10T07:48:49;-0.60;99.90
10276;DHT22;5183;51.190;6.820;2022-12-10T07:51:18;-0.60;99.90
10276;DHT22;5183;51.190;6.820;2022-12-10T07:53:46;-0.60;99.90
10276;DHT22;5183;51.190;6.820;2022-12-10T07:56:13;-0.60;99.90
10276;DHT22;5183;51.190;6.820;2022-12-10T07:58:41;-0.60;99.90
10276;DHT22;5183;51.190;6.820;2022-12-10T08:01:10;-0.60;99.90
10276;DHT22;5183;51.190;6.820;2022-12-10T08:03:38;-0.60;99.90
10276;DHT22;5183;51.190;6.820;2022-12-10T08:06:08;-0.60;99.90
10276;DHT22;5183;51.190;6.820;2022-12-10T08:08:35;-0.60;99.90
10276;DHT22;5183;51.190;6.820;2022-12-10T08:11:04;-0.60;99.90
10276;DHT22;5183;51.190;6.820;2022-12-10T08:13:31;-0.60;99.90
10276;DHT22;5183;51.190;6.820;2022-12-10T08:16:00;-0.60;99.90
10276;DHT22;5183;51.190;6.820;2022-12-10T08:18:28;-0.60;99.90
10276;DHT22;5183;51.190;6.820;2022-12-10T08:20:56;-0.60;99.90
10276;DHT22;5183;51.190;6.820;2022-12-10T08:23:23;-0.50;99.90
10276;DHT22;5183;51.190;6.820;2022-12-10T08:25:50;-0.50;99.90
10276;DHT22;5183;51.190;6.820;2022-12-10T08:28:17;-0.40;99.90
10276;DHT22;5183;51.190;6.820;2022-12-10T08:30:45;-0.40;99.90
10276;DHT22;5183;51.190;6.820;2022-12-10T08:33:12;-0.50;99.90
10276;DHT22;5183;51.190;6.820;2022-12-10T08:35:39;-0.40;99.90
10276;DHT22;5183;51.190;6.820;2022-12-10T08:38:07;-0.40;99.90
10276;DHT22;5183;51.190;6.820;2022-12-10T08:40:37;-0.40;99.90
10276;DHT22;5183;51.190;6.820;2022-12-10T08:43:04;-0.40;99.90
10276;DHT22;5183;51.190;6.820;2022-12-10T08:45:31;-0.50;99.90
10276;DHT22;5183;51.190;6.820;2022-12-10T08:47:58;-0.50;99.90
10276;DHT22;5183;51.190;6.820;2022-12-10T08:50:25;-0.50;99.90
10276;DHT22;5183;51.190;6.820;2022-12-10T08:52:52;-0.50;99.90
10276;DHT22;5183;51.190;6.820;2022-12-10T08:55:20;-0.40;99.90
10276;DHT22;5183;51.190;6.820;2022-12-10T08:57:47;-0.40;99.90
10276;DHT22;5183;51.190;6.820;2022-12-10T09:00:14;-0.40;99.90
10276;DHT22;5183;51.190;6.820;2022-12-10T09:02:41;-0.30;99.90
10276;DHT22;5183;51.190;6.820;2022-12-10T09:05:08;-0.30;99.90
10276;DHT22;5183;51.190;6.820;2022-12-10T09:07:35;-0.30;99.90
10276;DHT22;5183;51.190;6.820;2022-12-10T09:10:03;-0.40;99.90
10276;DHT22;5183;51.190;6.820;2022-12-10T09:12:34;-0.50;99.90
10276;DHT22;5183;51.190;6.820;2022-12-10T09:15:00;-0.50;99.90
10276;DHT22;5183;51.190;6.820;2022-12-10T09:17:27;-0.50;99.90
10276;DHT22;5183;51.190;6.820;2022-12-10T09:19:54;-0.50;99.90
10276;DHT22;5183;51.190;6.820;2022-12-10T09:22:21;-0.40;99.90
10276;DHT22;5183;51.190;6.820;2022-12-10T09:24:48;-0.30;99.90
10276;DHT22;5183;51.190;6.820;2022-12-10T09:27:15;-0.40;99.90
10276;DHT22;5183;51.190;6.820;2022-12-10T09:29:43;-0.40;99.90
10276;DHT22;5183;51.190;6.820;2022-12-10T09:32:10;-0.50;99.90
10276;DHT22;5183;51.190;6.820;2022-12-10T09:34:36;-0.40;99.90
10276;DHT22;5183;51.190;6.820;2022-12-10T09:37:03;-0.40;99.90
10276;DHT22;5183;51.190;6.820;2022-12-10T09:39:30;-0.40;99.90
10276;DHT22;5183;51.190;6.820;2022-12-10T09:42:10;-0.40;99.90
10276;DHT22;5183;51.190;6.820;2022-12-10T09:44:49;-0.30;99.90
10276;DHT22;5183;51.190;6.820;2022-12-10T09:47:19;-0.30;99.90
10276;DHT22;5183;51.190;6.820;2022-12-10T09:50:00;-0.30;99.90
10276;DHT22;5183;51.190;6.820;2022-12-10T09:52:33;-0.20;99.90
10276;DHT22;5183;51.190;6.820;2022-12-10T09:55:04;-0.20;99.90
10276;DHT22;5183;51.190;6.820;2022-12-10T09:57:38;-0.20;99.90
10276;DHT22;5183;51.190;6.820;2022-12-10T10:00:19;-0.20;99.90
10276;DHT22;5183;51.190;6.820;2022-12-10T10:02:47;-0.10;99.90
10276;DHT22;5183;51.190;6.820;2022-12-10T10:05:21;-0.10;99.90
10276;DHT22;5183;51.190;6.820;2022-12-10T10:07:51;0.00;99.90
10276;DHT22;5183;51.190;6.820;2022-12-10T10:10:23;0.00;99.90
10276;DHT22;5183;51.190;6.820;2022-12-10T10:12:52;0.00;99.90
10276;DHT22;5183;51.190;6.820;2022-12-10T10:15:26;0.00;99.90
10276;DHT22;5183;51.190;6.820;2022-12-10T10:17:58;0.00;99.90
10276;DHT22;5183;51.190;6.820;2022-12-10T10:20:25;0.00;99.90
10276;DHT22;5183;51.190;6.820;2022-12-10T10:22:53;0.10;99.90
10276;DHT22;5183;51.190;6.820;2022-12-10T10:25:22;0.10;99.90
10276;DHT22;5183;51.190;6.820;2022-12-10T10:27:49;0.20;99.90
10276;DHT22;5183;51.190;6.820;2022-12-10T10:30:18;0.20;99.90
10276;DHT22;5183;51.190;6.820;2022-12-10T10:32:51;0.30;99.90
10276;DHT22;5183;51.190;6.820;2022-12-10T10:35:24;0.40;99.90
10276;DHT22;5183;51.190;6.820;2022-12-10T10:37:55;0.50;99.90
10276;DHT22;5183;51.190;6.820;2022-12-10T10:40:26;0.40;99.90
10276;DHT22;5183;51.190;6.820;2022-12-10T10:42:55;0.40;99.90
10276;DHT22;5183;51.190;6.820;2022-12-10T10:45:40;0.50;99.90
10276;DHT22;5183;51.190;6.820;2022-12-10T10:48:12;0.50;99.90
10276;DHT22;5183;51.190;6.820;2022-12-10T10:50:41;0.50;99.90
10276;DHT22;5183;51.190;6.820;2022-12-10T10:56:01;0.70;99.90
10276;DHT22;5183;51.190;6.820;2022-12-10T10:58:32;0.80;99.90
10276;DHT22;5183;51.190;6.820;2022-12-10T11:01:01;0.80;99.90
10276;DHT22;5183;51.190;6.820;2022-12-10T11:03:31;0.90;99.90
10276;DHT22;5183;51.190;6.820;2022-12-10T11:05:59;1.00;99.90
10276;DHT22;5183;51.190;6.820;2022-12-10T11:08:29;0.90;99.90
10276;DHT22;5183;51.190;6.820;2022-12-10T11:11:01;0.90;99.90
10276;DHT22;5183;51.190;6.820;2022-12-10T11:13:30;1.00;99.90
10276;DHT22;5183;51.190;6.820;2022-12-10T11:16:01;1.00;99.90
10276;DHT22;5183;51.190;6.820;2022-12-10T11:18:35;1.00;99.90
10276;DHT22;5183;51.190;6.820;2022-12-10T11:21:05;1.10;99.90
10276;DHT22;5183;51.190;6.820;2022-12-10T11:23:37;1.10;99.90
10276;DHT22;5183;51.190;6.820;2022-12-10T11:26:26;1.30;99.90
10276;DHT22;5183;51.190;6.820;2022-12-10T11:29:09;1.30;99.90
10276;DHT22;5183;51.190;6.820;2022-12-10T11:31:53;1.20;99.90
10276;DHT22;5183;51.190;6.820;2022-12-10T11:34:30;1.30;99.90
10276;DHT22;5183;51.190;6.820;2022-12-10T11:37:05;1.30;99.90
10276;DHT22;5183;51.190;6.820;2022-12-10T11:39:51;1.20;94.20
10276;DHT22;5183;51.190;6.820;2022-12-10T11:42:26;1.30;94.10
10276;DHT22;5183;51.190;6.820;2022-12-10T11:45:03;1.20;92.80
10276;DHT22;5183;51.190;6.820;2022-12-10T11:47:43;1.20;93.70
10276;DHT22;5183;51.190;6.820;2022-12-10T11:50:26;1.30;88.00
10276;DHT22;5183;51.190;6.820;2022-12-10T11:55:59;1.20;49.20
10276;DHT22;5183;51.190;6.820;2022-12-10T11:58:47;1.20;85.70
10276;DHT22;5183;51.190;6.820;2022-12-10T12:01:23;1.10;99.90
10276;DHT22;5183;51.190;6.820;2022-12-10T12:07:04;1.20;99.90
10276;DHT22;5183;51.190;6.820;2022-12-10T12:09:44;1.10;99.90
10276;DHT22;5183;51.190;6.820;2022-12-10T12:12:22;1.00;99.90
10276;DHT22;5183;51.190;6.820;2022-12-10T12:14:55;1.00;99.90
10276;DHT22;5183;51.190;6.820;2022-12-10T12:17:26;1.00;99.90
10276;DHT22;5183;51.190;6.820;2022-12-10T12:19:57;1.00;99.90
10276;DHT22;5183;51.190;6.820;2022-12-10T12:22:29;1.00;99.90
10276;DHT22;5183;51.190;6.820;2022-12-10T12:25:00;1.10;99.90
10276;DHT22;5183;51.190;6.820;2022-12-10T12:27:32;1.10;99.90
10276;DHT22;5183;51.190;6.820;2022-12-10T12:30:06;1.10;99.90
10276;DHT22;5183;51.190;6.820;2022-12-10T12:32:46;1.10;99.90
10276;DHT22;5183;51.190;6.820;2022-12-10T12:35:19;1.20;99.90
10276;DHT22;5183;51.190;6.820;2022-12-10T12:37:51;1.20;99.90
10276;DHT22;5183;51.190;6.820;2022-12-10T12:40:27;1.10;99.90
10276;DHT22;5183;51.190;6.820;2022-12-10T12:42:58;1.10;99.90
10276;DHT22;5183;51.190;6.820;2022-12-10T12:45:32;1.10;99.90
10276;DHT22;5183;51.190;6.820;2022-12-10T12:48:09;1.20;99.90
10276;DHT22;5183;51.190;6.820;2022-12-10T12:50:44;1.20;99.90
10276;DHT22;5183;51.190;6.820;2022-12-10T12:53:16;1.30;99.90
10276;DHT22;5183;51.190;6.820;2022-12-10T12:55:49;1.30;99.90
10276;DHT22;5183;51.190;6.820;2022-12-10T12:58:27;1.40;85.70
10276;DHT22;5183;51.190;6.820;2022-12-10T13:01:03;1.40;95.10
10276;DHT22;5183;51.190;6.820;2022-12-10T13:03:35;1.40;93.70
10276;DHT22;5183;51.190;6.820;2022-12-10T13:06:18;1.50;93.70
10276;DHT22;5183;51.190;6.820;2022-12-10T13:08:52;1.40;81.80
10276;DHT22;5183;51.190;6.820;2022-12-10T13:11:34;1.50;97.70
10276;DHT22;5183;51.190;6.820;2022-12-10T13:14:15;1.50;93.50
10276;DHT22;5183;51.190;6.820;2022-12-10T13:16:59;1.30;99.90
10276;DHT22;5183;51.190;6.820;2022-12-10T13:19:29;1.40;99.90
10276;DHT22;5183;51.190;6.820;2022-12-10T13:22:05;1.40;99.90
10276;DHT22;5183;51.190;6.820;2022-12-10T13:25:03;1.40;99.90
10276;DHT22;5183;51.190;6.820;2022-12-10T13:27:33;1.30;99.90
10276;DHT22;5183;51.190;6.820;2022-12-10T13:30:03;1.30;99.90
10276;DHT22;5183;51.190;6.820;2022-12-10T13:32:46;1.40;99.90
10276;DHT22;5183;51.190;6.820;2022-12-10T13:35:25;1.40;99.90
10276;DHT22;5183;51.190;6.820;2022-12-10T13:37:55;1.40;99.90
10276;DHT22;5183;51.190;6.820;2022-12-10T13:40:25;1.40;99.90
10276;DHT22;5183;51.190;6.820;2022-12-10T13:42:57;1.50;99.70
10276;DHT22;5183;51.190;6.820;2022-12-10T13:45:42;1.50;83.40
10276;DHT22;5183;51.190;6.820;2022-12-10T13:48:28;1.50;93.50
10276;DHT22;5183;51.190;6.820;2022-12-10T13:51:14;1.50;99.90
10276;DHT22;5183;51.190;6.820;2022-12-10T13:53:52;1.50;99.90
10276;DHT22;5183;51.190;6.820;2022-12-10T13:56:26;1.60;99.90
10276;DHT22;5183;51.190;6.820;2022-12-10T13:59:03;1.60;99.90
10276;DHT22;5183;51.190;6.820;2022-12-10T14:01:37;1.60;98.10
10276;DHT22;5183;51.190;6.820;2022-12-10T14:04:25;1.60;95.30
10276;DHT22;5183;51.190;6.820;2022-12-10T14:06:55;1.60;94.50
10276;DHT22;5183;51.190;6.820;2022-12-10T14:09:26;1.60;94.10
10276;DHT22;5183;51.190;6.820;2022-12-10T14:11:58;1.40;95.10
10276;DHT22;5183;51.190;6.820;2022-12-10T14:14:29;1.40;99.90
10276;DHT22;5183;51.190;6.820;2022-12-10T14:17:00;1.50;99.90
10276;DHT22;5183;51.190;6.820;2022-12-10T14:19:28;1.50;99.90
10276;DHT22;5183;51.190;6.820;2022-12-10T14:21:55;1.50;99.90
10276;DHT22;5183;51.190;6.820;2022-12-10T14:24:31;1.50;99.90
10276;DHT22;5183;51.190;6.820;2022-12-10T14:27:02;1.50;99.90
10276;DHT22;5183;51.190;6.820;2022-12-10T14:29:32;1.40;99.90
10276;DHT22;5183;51.190;6.820;2022-12-10T14:31:58;1.50;99.90
10276;DHT22;5183;51.190;6.820;2022-12-10T14:34:27;1.50;99.90
10276;DHT22;5183;51.190;6.820;2022-12-10T14:36:56;1.50;99.90
10276;DHT22;5183;51.190;6.820;2022-12-10T14:39:26;1.50;99.90
10276;DHT22;5183;51.190;6.820;2022-12-10T14:41:57;1.60;99.90
10276;DHT22;5183;51.190;6.820;2022-12-10T14:44:26;1.50;99.90
10276;DHT22;5183;51.190;6.820;2022-12-10T14:47:03;1.40;99.90
10276;DHT22;5183;51.190;6.820;2022-12-10T14:49:30;1.40;99.90
10276;DHT22;5183;51.190;6.820;2022-12-10T14:51:57;1.40;99.90
10276;DHT22;5183;51.190;6.820;2022-12-10T14:54:28;1.30;99.90
10276;DHT22;5183;51.190;6.820;2022-12-10T14:56:58;1.30;99.90
10276;DHT22;5183;51.190;6.820;2022-12-10T14:59:30;1.30;99.90
10276;DHT22;5183;51.190;6.820;2022-12-10T15:02:02;1.20;99.90
10276;DHT22;5183;51.190;6.820;2022-12-10T15:04:40;1.20;99.90
10276;DHT22;5183;51.190;6.820;2022-12-10T15:07:12;1.20;99.90
10276;DHT22;5183;51.190;6.820;2022-12-10T15:09:41;1.20;99.90
10276;DHT22;5183;51.190;6.820;2022-12-10T15:15:09;1.20;99.90
10276;DHT22;5183;51.190;6.820;2022-12-10T15:17:41;1.10;99.90
10276;DHT22;5183;51.190;6.820;2022-12-10T15:20:23;1.10;99.90
10276;DHT22;5183;51.190;6.820;2022-12-10T15:22:51;1.00;99.90
10276;DHT22;5183;51.190;6.820;2022-12-10T15:25:24;1.00;99.90
10276;DHT22;5183;51.190;6.820;2022-12-10T15:27:53;0.90;99.90
10276;DHT22;5183;51.190;6.820;2022-12-10T15:30:33;0.90;99.90
10276;DHT22;5183;51.190;6.820;2022-12-10T15:33:01;0.90;99.90
10276;DHT22;5183;51.190;6.820;2022-12-10T15:35:28;0.90;99.90
10276;DHT22;5183;51.190;6.820;2022-12-10T15:37:55;0.80;99.90
10276;DHT22;5183;51.190;6.820;2022-12-10T15:40:26;0.70;99.90
10276;DHT22;5183;51.190;6.820;2022-12-10T15:42:56;0.70;99.90
10276;DHT22;5183;51.190;6.820;2022-12-10T15:45:40;0.70;99.90
10276;DHT22;5183;51.190;6.820;2022-12-10T15:48:09;0.60;99.90
10276;DHT22;5183;51.190;6.820;2022-12-10T15:50:36;0.60;99.90
10276;DHT22;5183;51.190;6.820;2022-12-10T15:53:03;0.60;99.90
10276;DHT22;5183;51.190;6.820;2022-12-10T15:55:30;0.60;99.90
10276;DHT22;5183;51.190;6.820;2022-12-10T15:57:57;0.60;99.90
10276;DHT22;5183;51.190;6.820;2022-12-10T16:00:26;0.70;99.90
10276;DHT22;5183;51.190;6.820;2022-12-10T16:02:56;0.70;99.90
10276;DHT22;5183;51.190;6.820;2022-12-10T16:05:25;0.70;99.90
10276;DHT22;5183;51.190;6.820;2022-12-10T16:07:53;0.70;99.90
10276;DHT22;5183;51.190;6.820;2022-12-10T16:10:22;0.60;99.90
10276;DHT22;5183;51.190;6.820;2022-12-10T16:12:55;0.60;99.90
10276;DHT22;5183;51.190;6.820;2022-12-10T16:15:24;0.60;99.90
10276;DHT22;5183;51.190;6.820;2022-12-10T16:17:54;0.60;99.90
10276;DHT22;5183;51.190;6.820;2022-12-10T16:20:23;0.60;99.90
10276;DHT22;5183;51.190;6.820;2022-12-10T16:22:51;0.60;99.90
10276;DHT22;5183;51.190;6.820;2022-12-10T16:25:18;0.60;99.90